Terminal Aerodrome Forecast
Issued by NWS Twin Cities, MN

Home | Current Version | Previous Version | Text Only | Print | Product List | Glossary Off
Versions: 1 2 3 4 5 6 7 8 9 10 11 12 13 14 15 16 17 18 19 20

000
FTUS43 KMPX 281000 AAA
TAFSTC
TAF AMD
KSTC 281043Z 2811/2906 12005KT P6SM FEW040 SCT250
      TEMPO 2811/2813 6SM BR
     FM281500 12008KT P6SM SCT040 OVC150
     FM282000 11007KT 6SM -SHRA BKN022 OVC040
     FM290300 11005KT 5SM -SHRA BR SCT007 OVC012=

USA.gov is the U.S. government's official web portal to all federal, state and local government web resources and services.